sensor_id;sensor_type;location;lat;lon;timestamp;P1;durP1;ratioP1;P2;durP2;ratioP2
24685;SDS011;12804;51.176;4.452;2022-09-01T00:00:21;3.17;;;0.98;;
24685;SDS011;12804;51.176;4.452;2022-09-01T00:02:53;1.35;;;0.90;;
24685;SDS011;12804;51.176;4.452;2022-09-01T00:05:20;3.08;;;0.88;;
24685;SDS011;12804;51.176;4.452;2022-09-01T00:07:46;2.25;;;1.02;;
24685;SDS011;12804;51.176;4.452;2022-09-01T00:10:13;5.22;;;1.00;;
24685;SDS011;12804;51.176;4.452;2022-09-01T00:12:39;2.65;;;1.02;;
24685;SDS011;12804;51.176;4.452;2022-09-01T00:15:06;2.15;;;0.85;;
24685;SDS011;12804;51.176;4.452;2022-09-01T00:17:33;3.13;;;1.10;;
24685;SDS011;12804;51.176;4.452;2022-09-01T00:19:59;3.13;;;1.17;;
24685;SDS011;12804;51.176;4.452;2022-09-01T00:22:25;2.15;;;1.17;;
24685;SDS011;12804;51.176;4.452;2022-09-01T00:24:51;2.05;;;1.00;;
24685;SDS011;12804;51.176;4.452;2022-09-01T00:27:17;2.03;;;1.10;;
24685;SDS011;12804;51.176;4.452;2022-09-01T00:29:42;3.45;;;0.85;;
24685;SDS011;12804;51.176;4.452;2022-09-01T00:32:08;4.47;;;1.05;;
24685;SDS011;12804;51.176;4.452;2022-09-01T00:34:34;3.10;;;0.90;;
24685;SDS011;12804;51.176;4.452;2022-09-01T00:37:00;1.80;;;0.82;;
24685;SDS011;12804;51.176;4.452;2022-09-01T00:39:26;5.13;;;1.10;;
24685;SDS011;12804;51.176;4.452;2022-09-01T00:41:52;2.67;;;1.10;;
24685;SDS011;12804;51.176;4.452;2022-09-01T00:44:19;2.58;;;1.10;;
24685;SDS011;12804;51.176;4.452;2022-09-01T00:46:52;1.33;;;0.82;;
24685;SDS011;12804;51.176;4.452;2022-09-01T00:49:30;2.95;;;1.20;;
24685;SDS011;12804;51.176;4.452;2022-09-01T00:52:04;1.65;;;1.08;;
24685;SDS011;12804;51.176;4.452;2022-09-01T00:54:45;2.65;;;0.98;;
24685;SDS011;12804;51.176;4.452;2022-09-01T00:57:14;3.72;;;1.00;;
24685;SDS011;12804;51.176;4.452;2022-09-01T01:00:05;2.40;;;1.15;;
24685;SDS011;12804;51.176;4.452;2022-09-01T01:02:36;2.75;;;1.17;;
24685;SDS011;12804;51.176;4.452;2022-09-01T01:05:04;4.13;;;1.10;;
24685;SDS011;12804;51.176;4.452;2022-09-01T01:07:30;5.38;;;1.20;;
24685;SDS011;12804;51.176;4.452;2022-09-01T01:10:01;2.10;;;1.25;;
24685;SDS011;12804;51.176;4.452;2022-09-01T01:12:27;2.00;;;1.05;;
24685;SDS011;12804;51.176;4.452;2022-09-01T01:14:54;4.30;;;1.10;;
24685;SDS011;12804;51.176;4.452;2022-09-01T01:17:21;1.13;;;1.00;;
24685;SDS011;12804;51.176;4.452;2022-09-01T01:19:52;2.13;;;1.20;;
24685;SDS011;12804;51.176;4.452;2022-09-01T01:22:41;3.50;;;1.10;;
24685;SDS011;12804;51.176;4.452;2022-09-01T01:25:38;2.22;;;1.20;;
24685;SDS011;12804;51.176;4.452;2022-09-01T01:28:05;2.38;;;0.98;;
24685;SDS011;12804;51.176;4.452;2022-09-01T01:30:34;3.00;;;1.30;;
24685;SDS011;12804;51.176;4.452;2022-09-01T01:33:04;5.57;;;1.10;;
24685;SDS011;12804;51.176;4.452;2022-09-01T01:35:31;2.67;;;1.10;;
24685;SDS011;12804;51.176;4.452;2022-09-01T01:37:58;3.35;;;1.15;;
24685;SDS011;12804;51.176;4.452;2022-09-01T01:40:26;4.07;;;1.17;;
24685;SDS011;12804;51.176;4.452;2022-09-01T01:42:53;1.52;;;1.00;;
24685;SDS011;12804;51.176;4.452;2022-09-01T01:45:21;2.40;;;1.38;;
24685;SDS011;12804;51.176;4.452;2022-09-01T01:47:48;2.83;;;1.10;;
24685;SDS011;12804;51.176;4.452;2022-09-01T01:50:19;3.88;;;1.45;;
24685;SDS011;12804;51.176;4.452;2022-09-01T01:52:50;3.38;;;1.30;;
24685;SDS011;12804;51.176;4.452;2022-09-01T01:55:16;1.60;;;1.30;;
24685;SDS011;12804;51.176;4.452;2022-09-01T01:57:45;2.80;;;1.15;;
24685;SDS011;12804;51.176;4.452;2022-09-01T02:00:19;3.28;;;1.33;;
24685;SDS011;12804;51.176;4.452;2022-09-01T02:02:48;3.42;;;1.15;;
24685;SDS011;12804;51.176;4.452;2022-09-01T02:05:19;5.40;;;1.23;;
24685;SDS011;12804;51.176;4.452;2022-09-01T02:07:47;2.20;;;1.30;;
24685;SDS011;12804;51.176;4.452;2022-09-01T02:10:14;1.27;;;1.02;;
24685;SDS011;12804;51.176;4.452;2022-09-01T02:12:41;3.92;;;1.17;;
24685;SDS011;12804;51.176;4.452;2022-09-01T02:15:07;2.33;;;1.10;;
24685;SDS011;12804;51.176;4.452;2022-09-01T02:17:35;2.40;;;1.10;;
24685;SDS011;12804;51.176;4.452;2022-09-01T02:20:04;2.33;;;1.20;;
24685;SDS011;12804;51.176;4.452;2022-09-01T02:22:31;2.88;;;1.20;;
24685;SDS011;12804;51.176;4.452;2022-09-01T02:24:57;2.05;;;1.15;;
24685;SDS011;12804;51.176;4.452;2022-09-01T02:27:25;2.25;;;1.05;;
24685;SDS011;12804;51.176;4.452;2022-09-01T02:29:53;2.55;;;0.90;;
24685;SDS011;12804;51.176;4.452;2022-09-01T02:32:20;2.53;;;1.02;;
24685;SDS011;12804;51.176;4.452;2022-09-01T02:34:48;2.67;;;1.00;;
24685;SDS011;12804;51.176;4.452;2022-09-01T02:37:19;1.48;;;1.10;;
24685;SDS011;12804;51.176;4.452;2022-09-01T02:39:52;2.45;;;1.00;;
24685;SDS011;12804;51.176;4.452;2022-09-01T02:42:22;2.50;;;1.20;;
24685;SDS011;12804;51.176;4.452;2022-09-01T02:44:51;1.65;;;1.00;;
24685;SDS011;12804;51.176;4.452;2022-09-01T02:47:19;1.45;;;1.10;;
24685;SDS011;12804;51.176;4.452;2022-09-01T02:49:48;5.78;;;1.20;;
24685;SDS011;12804;51.176;4.452;2022-09-01T02:52:14;1.30;;;1.00;;
24685;SDS011;12804;51.176;4.452;2022-09-01T02:54:42;2.08;;;1.40;;
24685;SDS011;12804;51.176;4.452;2022-09-01T02:57:10;3.70;;;1.38;;
24685;SDS011;12804;51.176;4.452;2022-09-01T02:59:37;2.03;;;1.20;;
24685;SDS011;12804;51.176;4.452;2022-09-01T03:02:03;2.25;;;1.10;;
24685;SDS011;12804;51.176;4.452;2022-09-01T03:04:31;2.97;;;1.17;;
24685;SDS011;12804;51.176;4.452;2022-09-01T03:06:59;2.75;;;1.30;;
24685;SDS011;12804;51.176;4.452;2022-09-01T03:09:26;2.38;;;1.17;;
24685;SDS011;12804;51.176;4.452;2022-09-01T03:11:52;2.50;;;1.10;;
24685;SDS011;12804;51.176;4.452;2022-09-01T03:14:19;2.70;;;1.27;;
24685;SDS011;12804;51.176;4.452;2022-09-01T03:16:47;2.05;;;1.10;;
24685;SDS011;12804;51.176;4.452;2022-09-01T03:19:13;3.72;;;1.40;;
24685;SDS011;12804;51.176;4.452;2022-09-01T03:21:40;4.70;;;1.27;;
24685;SDS011;12804;51.176;4.452;2022-09-01T03:24:08;4.22;;;1.17;;
24685;SDS011;12804;51.176;4.452;2022-09-01T03:26:38;2.63;;;1.10;;
24685;SDS011;12804;51.176;4.452;2022-09-01T03:29:05;3.13;;;1.13;;
24685;SDS011;12804;51.176;4.452;2022-09-01T03:31:31;1.38;;;1.10;;
24685;SDS011;12804;51.176;4.452;2022-09-01T03:33:59;2.10;;;1.33;;
24685;SDS011;12804;51.176;4.452;2022-09-01T03:36:29;4.28;;;1.13;;
24685;SDS011;12804;51.176;4.452;2022-09-01T03:38:58;1.58;;;1.00;;
24685;SDS011;12804;51.176;4.452;2022-09-01T03:41:25;1.45;;;1.33;;
24685;SDS011;12804;51.176;4.452;2022-09-01T03:43:53;2.42;;;1.20;;
24685;SDS011;12804;51.176;4.452;2022-09-01T03:46:21;3.38;;;1.30;;
24685;SDS011;12804;51.176;4.452;2022-09-01T03:48:49;4.63;;;1.33;;
24685;SDS011;12804;51.176;4.452;2022-09-01T03:51:19;1.40;;;1.27;;
24685;SDS011;12804;51.176;4.452;2022-09-01T03:53:47;3.05;;;1.40;;
24685;SDS011;12804;51.176;4.452;2022-09-01T03:56:13;1.25;;;1.00;;
24685;SDS011;12804;51.176;4.452;2022-09-01T03:58:40;3.80;;;1.60;;
24685;SDS011;12804;51.176;4.452;2022-09-01T04:01:11;2.05;;;1.40;;
24685;SDS011;12804;51.176;4.452;2022-09-01T04:03:38;3.38;;;1.42;;
24685;SDS011;12804;51.176;4.452;2022-09-01T04:06:06;1.73;;;1.30;;
24685;SDS011;12804;51.176;4.452;2022-09-01T04:08:34;3.50;;;1.30;;
24685;SDS011;12804;51.176;4.452;2022-09-01T04:11:01;4.05;;;1.40;;
24685;SDS011;12804;51.176;4.452;2022-09-01T04:13:35;6.50;;;1.67;;
24685;SDS011;12804;51.176;4.452;2022-09-01T04:16:03;3.67;;;1.60;;
24685;SDS011;12804;51.176;4.452;2022-09-01T04:18:56;3.58;;;1.58;;
24685;SDS011;12804;51.176;4.452;2022-09-01T04:21:24;5.63;;;1.40;;
24685;SDS011;12804;51.176;4.452;2022-09-01T04:23:50;2.72;;;1.30;;
24685;SDS011;12804;51.176;4.452;2022-09-01T04:26:16;3.28;;;1.85;;
24685;SDS011;12804;51.176;4.452;2022-09-01T04:28:48;4.93;;;1.70;;
24685;SDS011;12804;51.176;4.452;2022-09-01T04:31:18;2.50;;;1.50;;
24685;SDS011;12804;51.176;4.452;2022-09-01T04:36:20;4.15;;;1.95;;
24685;SDS011;12804;51.176;4.452;2022-09-01T04:41:22;2.03;;;1.83;;
24685;SDS011;12804;51.176;4.452;2022-09-01T04:43:58;5.88;;;1.85;;
24685;SDS011;12804;51.176;4.452;2022-09-01T04:46:30;4.15;;;2.20;;
24685;SDS011;12804;51.176;4.452;2022-09-01T04:49:02;2.42;;;1.95;;
24685;SDS011;12804;51.176;4.452;2022-09-01T04:51:36;7.18;;;2.30;;
24685;SDS011;12804;51.176;4.452;2022-09-01T04:54:03;5.50;;;2.05;;
24685;SDS011;12804;51.176;4.452;2022-09-01T04:56:36;4.30;;;2.05;;
24685;SDS011;12804;51.176;4.452;2022-09-01T04:59:07;5.55;;;2.40;;
24685;SDS011;12804;51.176;4.452;2022-09-01T05:01:36;6.18;;;2.60;;
24685;SDS011;12804;51.176;4.452;2022-09-01T05:04:18;6.13;;;2.42;;
24685;SDS011;12804;51.176;4.452;2022-09-01T05:06:57;5.22;;;2.30;;
24685;SDS011;12804;51.176;4.452;2022-09-01T05:09:28;3.83;;;2.35;;
24685;SDS011;12804;51.176;4.452;2022-09-01T05:12:06;3.42;;;2.45;;
24685;SDS011;12804;51.176;4.452;2022-09-01T05:14:37;5.35;;;2.90;;
24685;SDS011;12804;51.176;4.452;2022-09-01T05:17:08;3.50;;;2.85;;
24685;SDS011;12804;51.176;4.452;2022-09-01T05:19:40;5.20;;;2.65;;
24685;SDS011;12804;51.176;4.452;2022-09-01T05:22:08;5.50;;;2.72;;
24685;SDS011;12804;51.176;4.452;2022-09-01T05:24:38;3.03;;;2.53;;
24685;SDS011;12804;51.176;4.452;2022-09-01T05:27:05;6.30;;;2.92;;
24685;SDS011;12804;51.176;4.452;2022-09-01T05:29:34;7.28;;;3.13;;
24685;SDS011;12804;51.176;4.452;2022-09-01T05:32:03;6.60;;;3.95;;
24685;SDS011;12804;51.176;4.452;2022-09-01T05:34:35;6.13;;;3.95;;
24685;SDS011;12804;51.176;4.452;2022-09-01T05:37:03;6.13;;;3.63;;
24685;SDS011;12804;51.176;4.452;2022-09-01T05:39:33;5.85;;;3.45;;
24685;SDS011;12804;51.176;4.452;2022-09-01T05:42:01;5.80;;;3.42;;
24685;SDS011;12804;51.176;4.452;2022-09-01T05:44:32;7.22;;;3.30;;
24685;SDS011;12804;51.176;4.452;2022-09-01T05:46:58;6.03;;;2.85;;
24685;SDS011;12804;51.176;4.452;2022-09-01T05:49:26;7.05;;;3.50;;
24685;SDS011;12804;51.176;4.452;2022-09-01T05:51:54;8.52;;;3.25;;
24685;SDS011;12804;51.176;4.452;2022-09-01T05:54:24;6.28;;;3.67;;
24685;SDS011;12804;51.176;4.452;2022-09-01T05:56:54;5.72;;;3.22;;
24685;SDS011;12804;51.176;4.452;2022-09-01T05:59:25;7.32;;;3.78;;
24685;SDS011;12804;51.176;4.452;2022-09-01T06:01:58;10.10;;;3.55;;
24685;SDS011;12804;51.176;4.452;2022-09-01T06:04:25;6.85;;;4.32;;
24685;SDS011;12804;51.176;4.452;2022-09-01T06:06:54;6.97;;;4.22;;
24685;SDS011;12804;51.176;4.452;2022-09-01T06:09:21;7.32;;;4.38;;
24685;SDS011;12804;51.176;4.452;2022-09-01T06:11:49;8.35;;;4.53;;
24685;SDS011;12804;51.176;4.452;2022-09-01T06:14:16;9.27;;;4.78;;
24685;SDS011;12804;51.176;4.452;2022-09-01T06:16:45;8.57;;;4.97;;
24685;SDS011;12804;51.176;4.452;2022-09-01T06:19:13;10.68;;;4.88;;
24685;SDS011;12804;51.176;4.452;2022-09-01T06:21:43;8.30;;;5.00;;
24685;SDS011;12804;51.176;4.452;2022-09-01T06:24:10;8.25;;;4.82;;
24685;SDS011;12804;51.176;4.452;2022-09-01T06:26:36;11.45;;;4.07;;
24685;SDS011;12804;51.176;4.452;2022-09-01T06:29:05;7.35;;;4.80;;
24685;SDS011;12804;51.176;4.452;2022-09-01T06:31:39;6.88;;;4.97;;
24685;SDS011;12804;51.176;4.452;2022-09-01T06:34:07;8.07;;;5.15;;
24685;SDS011;12804;51.176;4.452;2022-09-01T06:36:41;8.85;;;5.07;;
24685;SDS011;12804;51.176;4.452;2022-09-01T06:39:09;10.48;;;5.78;;
24685;SDS011;12804;51.176;4.452;2022-09-01T06:41:44;10.57;;;5.30;;
24685;SDS011;12804;51.176;4.452;2022-09-01T06:44:12;11.25;;;5.60;;
24685;SDS011;12804;51.176;4.452;2022-09-01T06:46:42;10.48;;;5.70;;
24685;SDS011;12804;51.176;4.452;2022-09-01T06:49:08;10.68;;;5.68;;
24685;SDS011;12804;51.176;4.452;2022-09-01T06:51:36;10.43;;;5.10;;
24685;SDS011;12804;51.176;4.452;2022-09-01T06:54:02;11.50;;;6.03;;
24685;SDS011;12804;51.176;4.452;2022-09-01T06:56:31;9.50;;;6.05;;
24685;SDS011;12804;51.176;4.452;2022-09-01T06:59:00;9.68;;;6.47;;
24685;SDS011;12804;51.176;4.452;2022-09-01T07:01:29;12.98;;;6.70;;
24685;SDS011;12804;51.176;4.452;2022-09-01T07:03:55;10.18;;;6.22;;
24685;SDS011;12804;51.176;4.452;2022-09-01T07:06:39;14.00;;;7.15;;
24685;SDS011;12804;51.176;4.452;2022-09-01T07:09:29;12.20;;;6.82;;
24685;SDS011;12804;51.176;4.452;2022-09-01T07:12:17;13.65;;;7.07;;
24685;SDS011;12804;51.176;4.452;2022-09-01T07:14:45;17.08;;;7.32;;
24685;SDS011;12804;51.176;4.452;2022-09-01T07:17:13;15.77;;;8.05;;
24685;SDS011;12804;51.176;4.452;2022-09-01T07:19:41;10.95;;;7.07;;
24685;SDS011;12804;51.176;4.452;2022-09-01T07:22:07;11.80;;;7.20;;
24685;SDS011;12804;51.176;4.452;2022-09-01T07:24:35;11.50;;;7.63;;
24685;SDS011;12804;51.176;4.452;2022-09-01T07:27:20;12.63;;;6.97;;
24685;SDS011;12804;51.176;4.452;2022-09-01T07:29:52;14.93;;;7.65;;
24685;SDS011;12804;51.176;4.452;2022-09-01T07:32:20;14.82;;;7.18;;
24685;SDS011;12804;51.176;4.452;2022-09-01T07:34:47;13.00;;;7.03;;
24685;SDS011;12804;51.176;4.452;2022-09-01T07:37:13;12.10;;;6.78;;
24685;SDS011;12804;51.176;4.452;2022-09-01T07:39:40;9.98;;;7.53;;
24685;SDS011;12804;51.176;4.452;2022-09-01T07:42:46;13.15;;;7.70;;
24685;SDS011;12804;51.176;4.452;2022-09-01T07:45:31;13.73;;;7.18;;
24685;SDS011;12804;51.176;4.452;2022-09-01T07:47:59;13.35;;;6.90;;
24685;SDS011;12804;51.176;4.452;2022-09-01T07:50:35;15.25;;;7.18;;
24685;SDS011;12804;51.176;4.452;2022-09-01T07:53:02;14.75;;;7.15;;
24685;SDS011;12804;51.176;4.452;2022-09-01T07:55:29;13.07;;;7.22;;
24685;SDS011;12804;51.176;4.452;2022-09-01T07:57:58;10.98;;;6.93;;
24685;SDS011;12804;51.176;4.452;2022-09-01T08:00:24;13.00;;;7.50;;
24685;SDS011;12804;51.176;4.452;2022-09-01T08:02:57;12.23;;;7.15;;
24685;SDS011;12804;51.176;4.452;2022-09-01T08:05:24;15.57;;;7.45;;
24685;SDS011;12804;51.176;4.452;2022-09-01T08:07:51;12.65;;;7.55;;
24685;SDS011;12804;51.176;4.452;2022-09-01T08:10:21;11.63;;;6.90;;
24685;SDS011;12804;51.176;4.452;2022-09-01T08:12:48;12.88;;;7.22;;
24685;SDS011;12804;51.176;4.452;2022-09-01T08:15:14;15.43;;;7.38;;
24685;SDS011;12804;51.176;4.452;2022-09-01T08:17:43;10.82;;;7.00;;
24685;SDS011;12804;51.176;4.452;2022-09-01T08:20:11;10.90;;;7.38;;
24685;SDS011;12804;51.176;4.452;2022-09-01T08:22:50;11.68;;;7.22;;
24685;SDS011;12804;51.176;4.452;2022-09-01T08:25:25;18.67;;;7.32;;
24685;SDS011;12804;51.176;4.452;2022-09-01T08:27:52;11.90;;;7.30;;
24685;SDS011;12804;51.176;4.452;2022-09-01T08:30:18;12.63;;;7.65;;
24685;SDS011;12804;51.176;4.452;2022-09-01T08:32:44;13.38;;;7.40;;
24685;SDS011;12804;51.176;4.452;2022-09-01T08:35:10;14.43;;;6.90;;
24685;SDS011;12804;51.176;4.452;2022-09-01T08:37:38;12.30;;;6.78;;
24685;SDS011;12804;51.176;4.452;2022-09-01T08:40:05;13.82;;;7.32;;
24685;SDS011;12804;51.176;4.452;2022-09-01T08:45:26;14.23;;;7.20;;
24685;SDS011;12804;51.176;4.452;2022-09-01T08:48:08;11.30;;;6.75;;
24685;SDS011;12804;51.176;4.452;2022-09-01T08:50:40;13.77;;;7.00;;
24685;SDS011;12804;51.176;4.452;2022-09-01T08:58:22;13.75;;;6.97;;
24685;SDS011;12804;51.176;4.452;2022-09-01T09:01:10;15.23;;;7.38;;
24685;SDS011;12804;51.176;4.452;2022-09-01T09:06:40;13.23;;;6.68;;
24685;SDS011;12804;51.176;4.452;2022-09-01T09:09:28;12.65;;;6.28;;
24685;SDS011;12804;51.176;4.452;2022-09-01T09:15:06;10.00;;;5.50;;
24685;SDS011;12804;51.176;4.452;2022-09-01T09:17:37;9.23;;;6.00;;
24685;SDS011;12804;51.176;4.452;2022-09-01T09:20:09;10.52;;;5.60;;
24685;SDS011;12804;51.176;4.452;2022-09-01T09:22:35;7.65;;;5.40;;
24685;SDS011;12804;51.176;4.452;2022-09-01T09:25:08;8.55;;;5.15;;
24685;SDS011;12804;51.176;4.452;2022-09-01T09:27:40;12.40;;;5.47;;
24685;SDS011;12804;51.176;4.452;2022-09-01T09:40:58;5.10;;;2.97;;
24685;SDS011;12804;51.176;4.452;2022-09-01T09:43:27;3.42;;;2.50;;
24685;SDS011;12804;51.176;4.452;2022-09-01T09:51:53;3.50;;;1.75;;
24685;SDS011;12804;51.176;4.452;2022-09-01T09:54:25;4.55;;;1.60;;
24685;SDS011;12804;51.176;4.452;2022-09-01T09:59:32;3.00;;;1.42;;
24685;SDS011;12804;51.176;4.452;2022-09-01T10:04:51;3.35;;;1.00;;
24685;SDS011;12804;51.176;4.452;2022-09-01T10:07:23;2.42;;;1.13;;
24685;SDS011;12804;51.176;4.452;2022-09-01T10:09:50;4.57;;;1.30;;
24685;SDS011;12804;51.176;4.452;2022-09-01T10:12:17;4.45;;;1.40;;
24685;SDS011;12804;51.176;4.452;2022-09-01T10:14:45;3.90;;;1.30;;
24685;SDS011;12804;51.176;4.452;2022-09-01T10:17:22;2.95;;;1.60;;
24685;SDS011;12804;51.176;4.452;2022-09-01T10:19:59;3.80;;;1.48;;
24685;SDS011;12804;51.176;4.452;2022-09-01T10:22:31;6.20;;;1.48;;
24685;SDS011;12804;51.176;4.452;2022-09-01T10:24:58;4.70;;;1.45;;
24685;SDS011;12804;51.176;4.452;2022-09-01T10:27:26;2.45;;;0.90;;
24685;SDS011;12804;51.176;4.452;2022-09-01T10:32:36;3.47;;;1.50;;
24685;SDS011;12804;51.176;4.452;2022-09-01T10:35:06;1.63;;;1.08;;
24685;SDS011;12804;51.176;4.452;2022-09-01T10:37:36;3.00;;;1.02;;
24685;SDS011;12804;51.176;4.452;2022-09-01T10:42:35;4.57;;;1.00;;
24685;SDS011;12804;51.176;4.452;2022-09-01T10:45:01;2.00;;;0.93;;
24685;SDS011;12804;51.176;4.452;2022-09-01T10:47:29;1.58;;;0.98;;
24685;SDS011;12804;51.176;4.452;2022-09-01T10:50:02;2.75;;;0.82;;
24685;SDS011;12804;51.176;4.452;2022-09-01T10:55:19;1.92;;;0.80;;
24685;SDS011;12804;51.176;4.452;2022-09-01T11:13:38;1.88;;;0.90;;
24685;SDS011;12804;51.176;4.452;2022-09-01T11:22:23;1.40;;;1.13;;
24685;SDS011;12804;51.176;4.452;2022-09-01T11:30:30;2.53;;;1.10;;
24685;SDS011;12804;51.176;4.452;2022-09-01T11:35:37;2.72;;;1.13;;
24685;SDS011;12804;51.176;4.452;2022-09-01T11:38:04;2.15;;;1.00;;
24685;SDS011;12804;51.176;4.452;2022-09-01T11:40:32;1.70;;;1.15;;
24685;SDS011;12804;51.176;4.452;2022-09-01T11:43:01;2.03;;;1.17;;
24685;SDS011;12804;51.176;4.452;2022-09-01T11:45:31;3.85;;;1.30;;
24685;SDS011;12804;51.176;4.452;2022-09-01T11:48:01;3.00;;;1.20;;
24685;SDS011;12804;51.176;4.452;2022-09-01T11:50:37;2.72;;;1.10;;
24685;SDS011;12804;51.176;4.452;2022-09-01T11:55:37;3.83;;;1.10;;
24685;SDS011;12804;51.176;4.452;2022-09-01T11:58:05;5.93;;;1.10;;
24685;SDS011;12804;51.176;4.452;2022-09-01T12:00:39;3.90;;;1.20;;
24685;SDS011;12804;51.176;4.452;2022-09-01T12:03:22;5.45;;;1.50;;
24685;SDS011;12804;51.176;4.452;2022-09-01T12:06:03;2.00;;;1.15;;
24685;SDS011;12804;51.176;4.452;2022-09-01T12:08:32;4.45;;;1.20;;
24685;SDS011;12804;51.176;4.452;2022-09-01T12:11:08;3.25;;;1.20;;
24685;SDS011;12804;51.176;4.452;2022-09-01T12:13:37;2.60;;;1.20;;
24685;SDS011;12804;51.176;4.452;2022-09-01T12:16:05;2.88;;;1.10;;
24685;SDS011;12804;51.176;4.452;2022-09-01T12:18:37;3.33;;;1.35;;
24685;SDS011;12804;51.176;4.452;2022-09-01T12:23:44;2.10;;;1.23;;
24685;SDS011;12804;51.176;4.452;2022-09-01T12:26:11;3.05;;;1.42;;
24685;SDS011;12804;51.176;4.452;2022-09-01T12:28:42;2.03;;;1.17;;
24685;SDS011;12804;51.176;4.452;2022-09-01T12:31:14;1.67;;;1.17;;
24685;SDS011;12804;51.176;4.452;2022-09-01T12:33:44;3.50;;;1.20;;
24685;SDS011;12804;51.176;4.452;2022-09-01T12:36:33;3.58;;;1.13;;
24685;SDS011;12804;51.176;4.452;2022-09-01T12:39:21;3.38;;;1.17;;
24685;SDS011;12804;51.176;4.452;2022-09-01T12:44:41;2.65;;;1.15;;
24685;SDS011;12804;51.176;4.452;2022-09-01T12:52:44;1.30;;;1.10;;
24685;SDS011;12804;51.176;4.452;2022-09-01T12:55:19;3.33;;;1.15;;
24685;SDS011;12804;51.176;4.452;2022-09-01T12:57:49;2.95;;;1.20;;
24685;SDS011;12804;51.176;4.452;2022-09-01T13:00:17;3.20;;;1.20;;
24685;SDS011;12804;51.176;4.452;2022-09-01T13:02:48;1.77;;;1.52;;
24685;SDS011;12804;51.176;4.452;2022-09-01T13:07:51;3.03;;;1.17;;
24685;SDS011;12804;51.176;4.452;2022-09-01T13:10:19;1.95;;;1.30;;
24685;SDS011;12804;51.176;4.452;2022-09-01T13:12:45;2.83;;;1.13;;
24685;SDS011;12804;51.176;4.452;2022-09-01T13:15:12;2.08;;;1.15;;
24685;SDS011;12804;51.176;4.452;2022-09-01T13:17:38;1.33;;;1.10;;
24685;SDS011;12804;51.176;4.452;2022-09-01T13:20:04;3.20;;;1.38;;
24685;SDS011;12804;51.176;4.452;2022-09-01T13:22:30;4.20;;;1.35;;
24685;SDS011;12804;51.176;4.452;2022-09-01T13:24:56;2.55;;;1.30;;
24685;SDS011;12804;51.176;4.452;2022-09-01T13:27:22;2.40;;;1.08;;
24685;SDS011;12804;51.176;4.452;2022-09-01T13:29:48;4.97;;;1.45;;
24685;SDS011;12804;51.176;4.452;2022-09-01T13:32:15;1.83;;;1.45;;
24685;SDS011;12804;51.176;4.452;2022-09-01T13:34:41;2.38;;;1.20;;
24685;SDS011;12804;51.176;4.452;2022-09-01T13:37:07;3.78;;;1.35;;
24685;SDS011;12804;51.176;4.452;2022-09-01T13:39:32;2.78;;;1.30;;
24685;SDS011;12804;51.176;4.452;2022-09-01T13:41:58;4.70;;;1.35;;
24685;SDS011;12804;51.176;4.452;2022-09-01T13:44:24;3.05;;;1.20;;
24685;SDS011;12804;51.176;4.452;2022-09-01T13:46:50;3.40;;;1.17;;
24685;SDS011;12804;51.176;4.452;2022-09-01T13:49:15;3.13;;;1.48;;
24685;SDS011;12804;51.176;4.452;2022-09-01T13:51:41;2.67;;;1.10;;
24685;SDS011;12804;51.176;4.452;2022-09-01T13:54:07;3.78;;;1.17;;
24685;SDS011;12804;51.176;4.452;2022-09-01T13:56:33;2.60;;;1.08;;
24685;SDS011;12804;51.176;4.452;2022-09-01T13:58:59;2.05;;;1.08;;
24685;SDS011;12804;51.176;4.452;2022-09-01T14:01:25;2.35;;;0.90;;
24685;SDS011;12804;51.176;4.452;2022-09-01T14:03:51;3.97;;;0.90;;
24685;SDS011;12804;51.176;4.452;2022-09-01T14:06:16;4.82;;;1.15;;
24685;SDS011;12804;51.176;4.452;2022-09-01T14:08:42;2.50;;;1.00;;
24685;SDS011;12804;51.176;4.452;2022-09-01T14:11:14;3.95;;;1.00;;
24685;SDS011;12804;51.176;4.452;2022-09-01T14:13:41;3.05;;;1.00;;
24685;SDS011;12804;51.176;4.452;2022-09-01T14:16:13;6.07;;;1.05;;
24685;SDS011;12804;51.176;4.452;2022-09-01T14:18:39;3.60;;;0.90;;
24685;SDS011;12804;51.176;4.452;2022-09-01T14:21:09;2.25;;;1.17;;
24685;SDS011;12804;51.176;4.452;2022-09-01T14:26:06;3.85;;;1.10;;
24685;SDS011;12804;51.176;4.452;2022-09-01T14:28:37;3.23;;;1.10;;
24685;SDS011;12804;51.176;4.452;2022-09-01T14:31:07;5.28;;;1.00;;
24685;SDS011;12804;51.176;4.452;2022-09-01T14:33:35;2.92;;;0.90;;
24685;SDS011;12804;51.176;4.452;2022-09-01T14:36:01;2.00;;;0.88;;
24685;SDS011;12804;51.176;4.452;2022-09-01T14:38:27;4.35;;;1.10;;
24685;SDS011;12804;51.176;4.452;2022-09-01T14:40:54;1.05;;;0.88;;
24685;SDS011;12804;51.176;4.452;2022-09-01T14:43:20;2.22;;;1.30;;
24685;SDS011;12804;51.176;4.452;2022-09-01T14:45:46;1.45;;;1.02;;
24685;SDS011;12804;51.176;4.452;2022-09-01T14:48:13;1.67;;;0.90;;
24685;SDS011;12804;51.176;4.452;2022-09-01T14:50:41;4.47;;;0.95;;
24685;SDS011;12804;51.176;4.452;2022-09-01T14:53:10;5.03;;;1.13;;
24685;SDS011;12804;51.176;4.452;2022-09-01T14:55:36;3.92;;;1.02;;
24685;SDS011;12804;51.176;4.452;2022-09-01T14:58:02;1.80;;;0.80;;
24685;SDS011;12804;51.176;4.452;2022-09-01T15:00:30;2.85;;;1.00;;
24685;SDS011;12804;51.176;4.452;2022-09-01T15:02:59;2.90;;;0.95;;
24685;SDS011;12804;51.176;4.452;2022-09-01T15:05:25;3.78;;;1.00;;
24685;SDS011;12804;51.176;4.452;2022-09-01T15:07:51;1.23;;;1.00;;
24685;SDS011;12804;51.176;4.452;2022-09-01T15:10:19;1.92;;;0.90;;
24685;SDS011;12804;51.176;4.452;2022-09-01T15:12:47;4.78;;;0.95;;
24685;SDS011;12804;51.176;4.452;2022-09-01T15:15:14;1.63;;;1.15;;
24685;SDS011;12804;51.176;4.452;2022-09-01T15:17:40;2.45;;;1.00;;
24685;SDS011;12804;51.176;4.452;2022-09-01T15:20:07;2.72;;;0.90;;
24685;SDS011;12804;51.176;4.452;2022-09-01T15:22:52;5.72;;;1.20;;
24685;SDS011;12804;51.176;4.452;2022-09-01T15:25:18;2.65;;;1.23;;
24685;SDS011;12804;51.176;4.452;2022-09-01T15:27:44;3.83;;;1.00;;
24685;SDS011;12804;51.176;4.452;2022-09-01T15:30:11;6.07;;;1.20;;
24685;SDS011;12804;51.176;4.452;2022-09-01T15:32:45;0.85;;;0.77;;
24685;SDS011;12804;51.176;4.452;2022-09-01T15:35:13;1.92;;;1.17;;
24685;SDS011;12804;51.176;4.452;2022-09-01T15:37:40;4.60;;;1.10;;
24685;SDS011;12804;51.176;4.452;2022-09-01T15:40:07;3.35;;;1.30;;
24685;SDS011;12804;51.176;4.452;2022-09-01T15:42:34;3.50;;;1.10;;
24685;SDS011;12804;51.176;4.452;2022-09-01T15:45:05;3.83;;;1.30;;
24685;SDS011;12804;51.176;4.452;2022-09-01T15:47:33;2.45;;;0.82;;
24685;SDS011;12804;51.176;4.452;2022-09-01T15:49:59;3.22;;;1.08;;
24685;SDS011;12804;51.176;4.452;2022-09-01T15:52:25;1.10;;;0.82;;
24685;SDS011;12804;51.176;4.452;2022-09-01T15:54:52;2.55;;;1.00;;
24685;SDS011;12804;51.176;4.452;2022-09-01T15:57:18;1.67;;;0.80;;
24685;SDS011;12804;51.176;4.452;2022-09-01T15:59:44;2.83;;;1.02;;
24685;SDS011;12804;51.176;4.452;2022-09-01T16:02:09;2.40;;;0.95;;
24685;SDS011;12804;51.176;4.452;2022-09-01T16:04:37;2.55;;;0.82;;
24685;SDS011;12804;51.176;4.452;2022-09-01T16:07:04;3.75;;;1.15;;
24685;SDS011;12804;51.176;4.452;2022-09-01T16:09:30;3.13;;;0.90;;
24685;SDS011;12804;51.176;4.452;2022-09-01T16:11:56;2.03;;;0.80;;
24685;SDS011;12804;51.176;4.452;2022-09-01T16:14:22;1.45;;;0.80;;
24685;SDS011;12804;51.176;4.452;2022-09-01T16:22:22;3.03;;;1.15;;
24685;SDS011;12804;51.176;4.452;2022-09-01T16:24:51;5.10;;;0.90;;
24685;SDS011;12804;51.176;4.452;2022-09-01T16:28:01;3.35;;;1.02;;
24685;SDS011;12804;51.176;4.452;2022-09-01T16:30:11;3.33;;;1.17;;
24685;SDS011;12804;51.176;4.452;2022-09-01T16:32:42;4.32;;;0.90;;
24685;SDS011;12804;51.176;4.452;2022-09-01T16:35:10;3.28;;;1.10;;
24685;SDS011;12804;51.176;4.452;2022-09-01T16:43:15;5.95;;;1.10;;
24685;SDS011;12804;51.176;4.452;2022-09-01T16:59:15;4.22;;;1.20;;
24685;SDS011;12804;51.176;4.452;2022-09-01T17:01:47;2.13;;;0.95;;